Terminal Aerodrome Forecast
Issued by NWS Wichita, KS

Home | Current Version | Previous Version | Graphics & Text | Print | Product List | Glossary On
Versions: 1 2 3 4 5 6 7 8 9 10 11 12 13 14 15 16 17 18 19 20 21 22 23 24 25 26 27 28 29
213
FTUS43 KICT 191849 AAB
TAFICT
TAF AMD
KICT 191849Z 1919/2018 14012KT P6SM OVC009
     FM192000 13010KT P6SM BKN015
     FM200100 13005KT 3SM BR OVC009
      TEMPO 2004/2008 1SM -DZ BR OVC004
     FM200800 VRB03KT 1/2SM FG BKN001
     FM201500 14005KT P6SM BKN003=

USA.gov is the U.S. government's official web portal to all federal, state and local government web resources and services.